createdAt,value
2017-12-25T00:02:03.730Z,5.30
2017-12-25T00:04:31.346Z,5.83
2017-12-25T00:06:59.713Z,4.90
2017-12-25T00:09:27.447Z,8.67
2017-12-25T00:11:55.074Z,5.77
2017-12-25T00:14:22.679Z,6.73
2017-12-25T00:16:50.332Z,7.70
2017-12-25T00:19:17.956Z,7.30
2017-12-25T00:21:45.564Z,5.50
2017-12-25T00:24:13.193Z,7.43
2017-12-25T00:26:40.830Z,6.37
2017-12-25T00:29:08.428Z,8.10
2017-12-25T00:31:36.087Z,4.40
2017-12-25T00:34:03.720Z,6.50
2017-12-25T00:36:31.437Z,12.00
2017-12-25T00:38:59.116Z,7.70
2017-12-25T00:41:27.503Z,5.87
2017-12-25T00:43:55.897Z,6.90
2017-12-25T00:46:23.553Z,7.10
2017-12-25T00:48:51.164Z,6.60
2017-12-25T00:51:18.782Z,4.90
2017-12-25T00:53:46.444Z,8.37
2017-12-25T00:56:14.065Z,9.23
2017-12-25T00:58:41.678Z,5.90
2017-12-25T01:01:09.345Z,6.03
2017-12-25T01:03:36.978Z,6.90
2017-12-25T01:06:04.601Z,6.37
2017-12-25T01:08:32.258Z,6.50
2017-12-25T01:10:59.878Z,4.30
2017-12-25T01:13:27.528Z,5.20
2017-12-25T01:15:55.198Z,4.77
2017-12-25T01:18:22.809Z,5.60
2017-12-25T01:20:50.403Z,9.00
2017-12-25T01:23:18.043Z,5.97
2017-12-25T01:25:46.460Z,6.33
2017-12-25T01:28:14.340Z,5.80
2017-12-25T01:30:42.066Z,5.20
2017-12-25T01:33:09.670Z,5.17
2017-12-25T01:35:37.281Z,4.53
2017-12-25T01:38:05.801Z,9.27
2017-12-25T01:40:33.409Z,6.07
2017-12-25T01:43:01.008Z,7.77
2017-12-25T01:45:28.667Z,5.90
2017-12-25T01:47:56.296Z,7.87
2017-12-25T01:50:24.673Z,5.10
2017-12-25T01:52:53.085Z,5.53
2017-12-25T01:55:24.532Z,5.10
2017-12-25T01:58:10.862Z,5.10
2017-12-25T02:00:42.934Z,5.13
2017-12-25T02:03:10.535Z,5.07
2017-12-25T02:05:42.767Z,8.10
2017-12-25T02:08:22.229Z,4.47
2017-12-25T02:10:50.647Z,4.60
2017-12-25T02:13:18.289Z,4.80
2017-12-25T02:15:45.911Z,5.73
2017-12-25T02:18:13.539Z,7.90
2017-12-25T02:20:41.133Z,4.60
2017-12-25T02:23:08.754Z,4.80
2017-12-25T02:25:36.467Z,5.20
2017-12-25T02:28:04.096Z,4.67
2017-12-25T02:30:32.467Z,4.40
2017-12-25T02:33:00.154Z,6.60
2017-12-25T02:35:27.772Z,3.60
2017-12-25T02:37:55.388Z,3.90
2017-12-25T02:40:23.120Z,4.30
2017-12-25T02:42:50.727Z,4.47
2017-12-25T02:45:19.154Z,5.03
2017-12-25T02:47:46.843Z,6.50
2017-12-25T02:50:14.497Z,4.53
2017-12-25T02:52:42.110Z,4.70
2017-12-25T02:55:09.767Z,4.30
2017-12-25T02:57:37.394Z,5.00
2017-12-25T03:00:05.016Z,3.83
2017-12-25T03:02:32.667Z,5.10
2017-12-25T03:05:00.302Z,4.83
2017-12-25T03:07:28.689Z,4.70
2017-12-25T03:09:56.345Z,4.70
2017-12-25T03:12:23.970Z,3.80
2017-12-25T03:14:51.588Z,5.37
2017-12-25T03:17:19.238Z,4.10
2017-12-25T03:19:46.858Z,3.77
2017-12-25T03:22:14.514Z,3.90
2017-12-25T03:24:42.166Z,4.50
2017-12-25T03:27:09.775Z,5.97
2017-12-25T03:29:37.385Z,3.90
2017-12-25T03:32:05.038Z,4.40
2017-12-25T03:34:32.667Z,3.97
2017-12-25T03:37:00.284Z,4.83
2017-12-25T03:39:27.932Z,4.57
2017-12-25T03:41:56.001Z,4.67
2017-12-25T03:44:23.620Z,4.70
2017-12-25T03:46:51.253Z,3.90
2017-12-25T03:49:19.643Z,4.37
2017-12-25T03:51:47.245Z,3.97
2017-12-25T03:54:14.904Z,3.53
2017-12-25T03:56:42.524Z,4.87
2017-12-25T03:59:10.129Z,4.07
2017-12-25T04:01:37.849Z,6.70
2017-12-25T04:04:05.476Z,5.77
2017-12-25T04:06:33.086Z,4.03
2017-12-25T04:09:00.743Z,3.70
2017-12-25T04:11:28.357Z,6.60
2017-12-25T04:13:55.972Z,4.00
2017-12-25T04:16:23.624Z,4.63
2017-12-25T04:18:51.264Z,4.07
2017-12-25T04:21:19.647Z,4.00
2017-12-25T04:23:47.303Z,3.30
2017-12-25T04:26:15.681Z,3.83
2017-12-25T04:28:44.064Z,4.23
2017-12-25T04:31:12.472Z,4.97
2017-12-25T04:33:40.096Z,5.10
2017-12-25T04:36:08.476Z,5.00
2017-12-25T04:38:36.894Z,4.50
2017-12-25T04:41:04.509Z,4.43
2017-12-25T04:43:33.168Z,4.80
2017-12-25T04:46:00.839Z,3.73
2017-12-25T04:48:28.440Z,7.47
2017-12-25T04:50:56.114Z,4.70
2017-12-25T04:53:23.764Z,4.27
2017-12-25T04:55:51.380Z,3.80
2017-12-25T04:58:18.984Z,4.03
2017-12-25T05:00:46.634Z,5.37
2017-12-25T05:03:14.282Z,4.60
2017-12-25T05:05:42.658Z,3.50
2017-12-25T05:08:11.071Z,5.20
2017-12-25T05:10:38.678Z,3.40
2017-12-25T05:13:06.300Z,8.53
2017-12-25T05:15:34.774Z,5.20
2017-12-25T05:18:02.378Z,3.90
2017-12-25T05:20:29.985Z,5.90
2017-12-25T05:22:57.674Z,5.73
2017-12-25T05:25:25.276Z,5.13
2017-12-25T05:27:53.665Z,7.80
2017-12-25T05:30:22.086Z,5.30
2017-12-25T05:32:49.707Z,5.00
2017-12-25T05:35:18.088Z,4.23
2017-12-25T05:37:46.497Z,4.30
2017-12-25T05:40:14.105Z,5.37
2017-12-25T05:42:42.476Z,4.30
2017-12-25T05:45:10.387Z,4.20
2017-12-25T05:47:38.004Z,4.10
2017-12-25T05:50:05.609Z,5.13
2017-12-25T05:52:33.255Z,6.20
2017-12-25T05:55:01.653Z,4.30
2017-12-25T05:57:29.293Z,4.03
2017-12-25T05:59:57.718Z,5.10
2017-12-25T06:02:25.339Z,4.00
2017-12-25T06:04:52.973Z,4.13
2017-12-25T06:07:21.392Z,8.97
2017-12-25T06:09:49.013Z,5.40
2017-12-25T06:12:17.402Z,4.50
2017-12-25T06:14:45.816Z,4.43
2017-12-25T06:17:13.431Z,4.87
2017-12-25T06:19:41.838Z,4.80
2017-12-25T06:22:09.489Z,4.40
2017-12-25T06:24:37.880Z,4.80
2017-12-25T06:27:05.486Z,5.57
2017-12-25T06:29:33.157Z,4.00
2017-12-25T06:32:00.767Z,4.57
2017-12-25T06:34:28.394Z,4.97
2017-12-25T06:36:56.067Z,5.03
2017-12-25T06:39:24.465Z,4.97
2017-12-25T06:41:52.067Z,7.53
2017-12-25T06:44:19.714Z,4.90
2017-12-25T06:46:47.339Z,5.20
2017-12-25T06:49:14.963Z,5.13
2017-12-25T06:51:42.610Z,3.87
2017-12-25T06:54:10.208Z,7.60
2017-12-25T06:56:38.580Z,5.20
2017-12-25T06:59:07.059Z,4.20
2017-12-25T07:01:35.461Z,3.70
2017-12-25T07:04:03.068Z,4.33
2017-12-25T07:06:30.717Z,4.40
2017-12-25T07:08:58.321Z,4.60
2017-12-25T07:11:26.756Z,9.23
2017-12-25T07:13:54.405Z,4.47
2017-12-25T07:16:22.022Z,5.10
2017-12-25T07:18:50.402Z,7.00
2017-12-25T07:21:18.088Z,6.20
2017-12-25T07:23:46.476Z,5.87
2017-12-25T07:26:14.087Z,6.67
2017-12-25T07:28:41.808Z,6.00
2017-12-25T07:31:09.446Z,4.90
2017-12-25T07:33:37.045Z,5.10
2017-12-25T07:36:04.749Z,4.47
2017-12-25T07:38:33.144Z,4.60
2017-12-25T07:41:00.776Z,5.10
2017-12-25T07:43:28.480Z,6.20
2017-12-25T07:45:56.093Z,5.37
2017-12-25T07:48:23.753Z,4.77
2017-12-25T07:50:51.438Z,5.50
2017-12-25T07:53:19.816Z,5.00
2017-12-25T07:55:47.478Z,4.70
2017-12-25T07:58:16.022Z,4.50
2017-12-25T08:00:43.615Z,4.33
2017-12-25T08:03:12.000Z,5.10
2017-12-25T08:05:40.448Z,6.33
2017-12-25T08:08:08.096Z,4.60
2017-12-25T08:10:35.733Z,6.80
2017-12-25T08:13:03.515Z,7.90
2017-12-25T08:15:31.126Z,5.83
2017-12-25T08:17:58.780Z,4.37
2017-12-25T08:20:27.414Z,5.93
2017-12-25T08:22:55.805Z,5.33
2017-12-25T08:25:23.449Z,7.30
2017-12-25T08:27:51.166Z,6.23
2017-12-25T08:30:18.831Z,6.00
2017-12-25T08:32:47.202Z,4.67
2017-12-25T08:35:14.914Z,5.43
2017-12-25T08:37:42.528Z,7.13
2017-12-25T08:40:11.726Z,4.70
2017-12-25T08:42:40.218Z,5.60
2017-12-25T08:45:07.870Z,5.93
2017-12-25T08:47:35.506Z,6.60
2017-12-25T08:50:03.290Z,4.80
2017-12-25T08:52:31.693Z,6.00
2017-12-25T08:54:59.336Z,7.43
2017-12-25T08:57:27.817Z,6.10
2017-12-25T08:59:55.493Z,8.23
2017-12-25T09:02:27.719Z,6.03
2017-12-25T09:04:55.350Z,6.33
2017-12-25T09:07:23.020Z,6.33
2017-12-25T09:09:50.731Z,6.50
2017-12-25T09:12:18.354Z,6.30
2017-12-25T09:14:46.000Z,7.30
2017-12-25T09:17:13.747Z,5.63
2017-12-25T09:19:41.345Z,6.83
2017-12-25T09:22:08.969Z,5.87
2017-12-25T09:24:36.692Z,6.87
2017-12-25T09:27:05.105Z,9.90
2017-12-25T09:29:32.748Z,10.63
2017-12-25T09:32:00.438Z,11.43
2017-12-25T09:34:28.153Z,6.10
2017-12-25T09:36:55.881Z,7.23
2017-12-25T09:39:23.699Z,6.00
2017-12-25T09:41:51.505Z,7.90
2017-12-25T09:44:19.166Z,6.40
2017-12-25T09:46:46.890Z,6.43
2017-12-25T09:49:14.731Z,5.53
2017-12-25T09:51:43.186Z,7.83
2017-12-25T09:54:10.882Z,6.13
2017-12-25T09:56:39.352Z,6.67
2017-12-25T09:59:07.090Z,7.80
2017-12-25T10:01:35.081Z,6.90
2017-12-25T10:04:02.727Z,5.77
2017-12-25T10:06:30.358Z,5.87
2017-12-25T10:08:58.091Z,7.77
2017-12-25T10:11:25.752Z,5.83
2017-12-25T10:13:54.153Z,7.70
2017-12-25T10:16:21.885Z,7.83
2017-12-25T10:18:50.392Z,8.20
2017-12-25T10:21:18.244Z,6.67
2017-12-25T10:23:46.071Z,7.00
2017-12-25T10:26:13.673Z,7.63
2017-12-25T10:28:41.284Z,8.60
2017-12-25T10:31:09.063Z,6.90
2017-12-25T10:33:36.787Z,7.03
2017-12-25T10:36:04.410Z,7.50
2017-12-25T10:38:33.092Z,5.50
2017-12-25T10:41:01.482Z,7.10
2017-12-25T10:43:29.113Z,9.63
2017-12-25T10:45:56.833Z,9.10
2017-12-25T10:48:24.486Z,13.20
2017-12-25T10:50:52.095Z,12.10
2017-12-25T10:53:20.710Z,11.47
2017-12-25T10:55:49.116Z,17.93
2017-12-25T10:58:16.843Z,11.37
2017-12-25T11:00:50.261Z,10.00
2017-12-25T11:03:17.905Z,9.70
2017-12-25T11:05:45.566Z,10.40
2017-12-25T11:08:14.549Z,9.80
2017-12-25T11:10:42.181Z,10.67
2017-12-25T11:13:09.916Z,8.90
2017-12-25T11:15:37.621Z,8.50
2017-12-25T11:18:06.022Z,8.53
2017-12-25T11:20:34.398Z,11.43
2017-12-25T11:23:02.877Z,8.93
2017-12-25T11:25:31.296Z,9.80
2017-12-25T11:27:58.902Z,9.87
2017-12-25T11:30:26.684Z,10.83
2017-12-25T11:32:54.334Z,10.27
2017-12-25T11:35:22.030Z,9.27
2017-12-25T11:37:49.773Z,9.70
2017-12-25T11:40:18.149Z,9.00
2017-12-25T11:42:46.530Z,8.57
2017-12-25T11:45:14.976Z,8.60
2017-12-25T11:47:42.628Z,7.17
2017-12-25T11:50:10.258Z,7.63
2017-12-25T11:52:37.990Z,10.67
2017-12-25T11:55:05.638Z,10.17
2017-12-25T11:57:33.368Z,11.27
2017-12-25T12:00:01.087Z,11.40
2017-12-25T12:02:29.503Z,10.73
2017-12-25T12:04:57.114Z,8.60
2017-12-25T12:07:25.718Z,14.17
2017-12-25T12:09:53.329Z,7.27
2017-12-25T12:12:21.193Z,12.83
2017-12-25T12:14:48.920Z,6.87
2017-12-25T12:17:16.575Z,6.47
2017-12-25T12:19:44.208Z,7.43
2017-12-25T12:22:12.727Z,6.83
2017-12-25T12:24:40.378Z,9.63
2017-12-25T12:27:08.022Z,7.07
2017-12-25T12:29:35.734Z,7.37
2017-12-25T12:32:03.358Z,10.40
2017-12-25T12:34:30.978Z,8.37
2017-12-25T12:36:58.799Z,13.30
2017-12-25T12:39:26.418Z,10.13
2017-12-25T12:41:54.036Z,10.00
2017-12-25T12:44:21.744Z,10.90
2017-12-25T12:46:50.154Z,13.13
2017-12-25T12:49:17.774Z,10.43
2017-12-25T12:51:46.218Z,8.47
2017-12-25T12:54:14.657Z,9.10
2017-12-25T12:56:42.290Z,9.50
2017-12-25T12:59:10.153Z,10.97
2017-12-25T13:01:38.583Z,10.37
2017-12-25T13:04:06.257Z,11.70
2017-12-25T13:06:34.151Z,10.00
2017-12-25T13:09:02.563Z,8.37
2017-12-25T13:11:30.957Z,8.07
2017-12-25T13:13:58.719Z,8.90
2017-12-25T13:16:26.369Z,11.20
2017-12-25T13:18:54.057Z,7.73
2017-12-25T13:21:21.871Z,8.63
2017-12-25T13:23:49.529Z,10.23
2017-12-25T13:26:17.219Z,8.87
2017-12-25T13:28:45.003Z,9.53
2017-12-25T13:31:12.618Z,14.77
2017-12-25T13:33:40.295Z,9.10
2017-12-25T13:36:08.110Z,9.17
2017-12-25T13:38:35.802Z,10.33
2017-12-25T13:41:03.460Z,12.30
2017-12-25T13:43:31.149Z,11.70
2017-12-25T13:45:59.531Z,10.67
2017-12-25T13:48:27.162Z,9.97
2017-12-25T13:50:54.954Z,24.50
2017-12-25T13:53:23.337Z,10.60
2017-12-25T13:55:50.991Z,12.10
2017-12-25T13:58:20.543Z,10.77
2017-12-25T14:00:48.158Z,11.33
2017-12-25T14:03:16.573Z,16.47
2017-12-25T14:05:44.274Z,13.93
2017-12-25T14:08:11.876Z,8.67
2017-12-25T14:10:39.506Z,11.67
2017-12-25T14:13:07.991Z,9.67
2017-12-25T14:15:36.634Z,11.00
2017-12-25T14:18:04.252Z,10.20
2017-12-25T14:20:31.923Z,11.43
2017-12-25T14:22:59.558Z,8.93
2017-12-25T14:25:27.924Z,8.67
2017-12-25T14:27:55.633Z,8.20
2017-12-25T14:30:23.257Z,8.33
2017-12-25T14:32:50.935Z,8.77
2017-12-25T14:35:18.778Z,8.67
2017-12-25T14:37:47.183Z,9.37
2017-12-25T14:40:14.844Z,8.23
2017-12-25T14:42:43.302Z,9.90
2017-12-25T14:45:11.746Z,8.30
2017-12-25T14:47:39.365Z,8.20
2017-12-25T14:50:07.968Z,9.97
2017-12-25T14:52:35.643Z,10.90
2017-12-25T14:55:03.263Z,7.77
2017-12-25T14:57:31.001Z,8.90
2017-12-25T14:59:59.427Z,8.67
2017-12-25T15:02:27.093Z,10.40
2017-12-25T15:04:54.804Z,11.17
2017-12-25T15:07:23.188Z,9.40
2017-12-25T15:09:50.829Z,8.60
2017-12-25T15:12:19.433Z,8.10
2017-12-25T15:14:47.175Z,10.73
2017-12-25T15:17:14.823Z,11.40
2017-12-25T15:19:42.521Z,7.97
2017-12-25T15:22:10.962Z,9.93
2017-12-25T15:24:38.593Z,7.80
2017-12-25T15:27:06.418Z,11.00
2017-12-25T15:29:34.091Z,7.40
2017-12-25T15:32:02.539Z,11.13
2017-12-25T15:34:30.247Z,8.10
2017-12-25T15:36:58.607Z,8.50
2017-12-25T15:39:27.032Z,10.53
2017-12-25T15:41:54.738Z,12.87
2017-12-25T15:44:22.460Z,10.60
2017-12-25T15:46:50.089Z,10.80
2017-12-25T15:49:18.669Z,9.40
2017-12-25T15:51:47.088Z,11.43
2017-12-25T15:54:14.786Z,17.87
2017-12-25T15:56:43.497Z,18.70
2017-12-25T15:59:11.984Z,13.87
2017-12-25T16:01:40.353Z,10.90
2017-12-25T16:04:08.177Z,17.07
2017-12-25T16:06:35.882Z,15.93
2017-12-25T16:09:04.310Z,9.73
2017-12-25T16:11:32.005Z,15.53
2017-12-25T16:13:59.686Z,21.37
2017-12-25T16:16:28.165Z,17.17
2017-12-25T16:18:56.724Z,19.40
2017-12-25T16:21:24.512Z,17.27
2017-12-25T16:23:52.152Z,20.47
2017-12-25T16:26:20.775Z,17.10
2017-12-25T16:28:49.210Z,22.40
2017-12-25T16:31:17.007Z,15.33
2017-12-25T16:33:44.759Z,20.57
2017-12-25T16:36:13.204Z,16.77
2017-12-25T16:38:43.897Z,18.70
2017-12-25T16:41:11.853Z,22.00
2017-12-25T16:43:39.485Z,20.17
2017-12-25T16:46:07.872Z,11.70
2017-12-25T16:48:36.314Z,14.37
2017-12-25T16:51:04.119Z,12.83
2017-12-25T16:53:31.766Z,13.57
2017-12-25T16:55:59.502Z,11.50
2017-12-25T16:58:27.886Z,13.83
2017-12-25T17:00:55.515Z,12.20
2017-12-25T17:03:23.329Z,13.63
2017-12-25T17:05:51.007Z,12.17
2017-12-25T17:08:18.644Z,13.30
2017-12-25T17:10:46.352Z,12.03
2017-12-25T17:13:13.962Z,13.77
2017-12-25T17:15:42.405Z,18.00
2017-12-25T17:18:10.213Z,16.03
2017-12-25T17:20:37.909Z,16.70
2017-12-25T17:23:06.296Z,17.57
2017-12-25T17:25:34.762Z,16.63
2017-12-25T17:28:03.146Z,14.33
2017-12-25T17:30:31.848Z,15.70
2017-12-25T17:32:59.612Z,17.37
2017-12-25T17:35:27.212Z,17.47
2017-12-25T17:37:54.897Z,16.30
2017-12-25T17:40:23.391Z,19.97
2017-12-25T17:42:51.806Z,19.83
2017-12-25T17:45:19.498Z,18.83
2017-12-25T17:47:47.324Z,18.37
2017-12-25T17:50:14.950Z,20.37
2017-12-25T17:52:42.579Z,20.00
2017-12-25T17:55:10.317Z,20.97
2017-12-25T17:57:37.953Z,21.40
2017-12-25T18:00:06.436Z,21.20
2017-12-25T18:02:35.376Z,32.20
2017-12-25T18:05:02.980Z,26.43
2017-12-25T18:07:31.393Z,24.97
2017-12-25T18:09:59.472Z,28.30
2017-12-25T18:12:27.169Z,22.20
2017-12-25T18:14:54.834Z,27.87
2017-12-25T18:17:22.570Z,26.57
2017-12-25T18:19:50.223Z,22.87
2017-12-25T18:22:17.896Z,22.60
2017-12-25T18:24:45.576Z,28.23
2017-12-25T18:27:13.186Z,26.10
2017-12-25T18:29:40.818Z,30.10
2017-12-25T18:32:09.305Z,27.37
2017-12-25T18:34:38.023Z,27.87
2017-12-25T18:37:05.715Z,26.90
2017-12-25T18:39:33.676Z,26.27
2017-12-25T18:42:01.406Z,30.57
2017-12-25T18:44:29.059Z,28.73
2017-12-25T18:46:56.777Z,31.77
2017-12-25T18:49:25.184Z,28.60
2017-12-25T18:51:53.562Z,31.23
2017-12-25T18:54:22.317Z,32.93
2017-12-25T18:56:50.739Z,31.33
2017-12-25T18:59:18.394Z,30.00
2017-12-25T19:01:46.874Z,31.17
2017-12-25T19:04:15.300Z,35.17
2017-12-25T19:06:42.941Z,45.40
2017-12-25T19:09:10.651Z,38.47
2017-12-25T19:11:38.285Z,31.93
2017-12-25T19:14:05.939Z,32.13
2017-12-25T19:16:33.649Z,32.00
2017-12-25T19:19:02.070Z,33.63
2017-12-25T19:21:29.691Z,61.13
2017-12-25T19:23:57.486Z,34.93
2017-12-25T19:26:25.149Z,36.47
2017-12-25T19:28:52.818Z,33.80
2017-12-25T19:31:20.534Z,34.90
2017-12-25T19:33:48.213Z,35.77
2017-12-25T19:36:16.593Z,41.60
2017-12-25T19:38:44.375Z,40.53
2017-12-25T19:41:12.018Z,46.80
2017-12-25T19:43:39.770Z,66.70
2017-12-25T19:46:07.420Z,61.93
2017-12-25T19:48:35.089Z,45.97
2017-12-25T19:51:03.493Z,36.03
2017-12-25T19:53:31.195Z,49.60
2017-12-25T19:55:58.898Z,43.70
2017-12-25T19:58:27.305Z,86.80
2017-12-25T20:00:54.988Z,76.93
2017-12-25T20:03:22.686Z,95.07
2017-12-25T20:05:51.139Z,100.03
2017-12-25T20:08:18.852Z,78.87
2017-12-25T20:10:47.327Z,55.23
2017-12-25T20:13:15.745Z,80.70
2017-12-25T20:15:43.450Z,105.63
2017-12-25T20:18:11.881Z,85.70
2017-12-25T20:20:39.519Z,69.63
2017-12-25T20:23:08.131Z,93.13
2017-12-25T20:25:35.769Z,85.97
2017-12-25T20:28:04.150Z,56.10
2017-12-25T20:30:31.822Z,79.37
2017-12-25T20:32:59.456Z,103.57
2017-12-25T20:35:27.892Z,99.60
2017-12-25T20:37:55.604Z,58.63
2017-12-25T20:40:23.247Z,92.27
2017-12-25T20:42:51.690Z,75.33
2017-12-25T20:45:19.534Z,79.40
2017-12-25T20:47:47.220Z,65.33
2017-12-25T20:50:14.923Z,37.40
2017-12-25T20:52:42.621Z,58.97
2017-12-25T20:55:10.244Z,45.37
2017-12-25T20:57:38.014Z,30.57
2017-12-25T21:00:06.433Z,47.53
2017-12-25T21:02:34.096Z,67.50
2017-12-25T21:05:01.954Z,52.73
2017-12-25T21:07:29.734Z,68.43
2017-12-25T21:09:57.362Z,69.20
2017-12-25T21:12:25.052Z,67.50
2017-12-25T21:14:52.711Z,82.80
2017-12-25T21:17:20.384Z,61.43
2017-12-25T21:19:48.052Z,75.13
2017-12-25T21:22:15.747Z,73.53
2017-12-25T21:24:43.449Z,32.23
2017-12-25T21:27:11.193Z,72.30
2017-12-25T21:29:38.906Z,80.50
2017-12-25T21:32:06.675Z,77.63
2017-12-25T21:34:34.344Z,74.07
2017-12-25T21:37:02.135Z,69.53
2017-12-25T21:39:30.517Z,29.73
2017-12-25T21:41:58.935Z,37.77
2017-12-25T21:44:26.625Z,35.33
2017-12-25T21:46:54.456Z,33.03
2017-12-25T21:49:22.911Z,35.47
2017-12-25T21:51:50.678Z,31.73
2017-12-25T21:54:18.383Z,31.17
2017-12-25T21:56:46.013Z,35.17
2017-12-25T21:59:13.798Z,34.10
2017-12-25T22:01:41.444Z,34.33
2017-12-25T22:04:09.094Z,27.47
2017-12-25T22:06:36.748Z,38.60
2017-12-25T22:09:04.380Z,30.03
2017-12-25T22:11:32.825Z,41.33
2017-12-25T22:14:00.497Z,57.27
2017-12-25T22:16:28.225Z,51.60
2017-12-25T22:18:55.870Z,59.90
2017-12-25T22:21:24.273Z,63.97
2017-12-25T22:23:51.928Z,71.40
2017-12-25T22:26:19.584Z,77.20
2017-12-25T22:28:47.253Z,35.10
2017-12-25T22:31:14.898Z,31.53
2017-12-25T22:33:42.582Z,38.23
2017-12-25T22:36:10.286Z,38.90
2017-12-25T22:38:37.922Z,37.40
2017-12-25T22:41:05.540Z,34.77
2017-12-25T22:43:34.018Z,33.47
2017-12-25T22:46:01.637Z,38.67
2017-12-25T22:48:29.614Z,45.33
2017-12-25T22:50:57.294Z,54.43
2017-12-25T22:53:25.695Z,55.50
2017-12-25T22:55:53.320Z,63.53
2017-12-25T22:58:21.002Z,56.50
2017-12-25T23:00:49.428Z,61.43
2017-12-25T23:03:17.048Z,60.63
2017-12-25T23:05:45.531Z,61.10
2017-12-25T23:08:13.935Z,50.20
2017-12-25T23:10:41.589Z,44.57
2017-12-25T23:13:09.254Z,52.60
2017-12-25T23:15:36.884Z,57.27
2017-12-25T23:18:05.271Z,39.40
2017-12-25T23:20:32.992Z,52.83
2017-12-25T23:23:00.626Z,40.37
2017-12-25T23:25:28.273Z,37.27
2017-12-25T23:27:56.441Z,33.37
2017-12-25T23:30:24.098Z,33.87
2017-12-25T23:32:51.757Z,36.13
2017-12-25T23:35:19.431Z,42.43
2017-12-25T23:37:47.046Z,34.00
2017-12-25T23:40:14.671Z,37.73
2017-12-25T23:42:42.361Z,47.47
2017-12-25T23:45:09.994Z,36.63
2017-12-25T23:47:37.614Z,45.83
2017-12-25T23:50:06.042Z,62.53
2017-12-25T23:52:33.680Z,55.57
2017-12-25T23:55:01.340Z,40.47
2017-12-25T23:57:29.030Z,40.50
2017-12-25T23:59:56.668Z,52.20
